sensor_id;sensor_type;location;lat;lon;timestamp;pressure;altitude;pressure_sealevel;temperature
82778;BMP280;72510;45.128;20.734;2024-03-07T00:01:46;100191.75;;;9.03
82778;BMP280;72510;45.128;20.734;2024-03-07T00:11:48;100198.06;;;9.06
82778;BMP280;72510;45.128;20.734;2024-03-07T00:21:49;100198.03;;;9.15
82778;BMP280;72510;45.128;20.734;2024-03-07T00:31:53;100176.88;;;8.97
82778;BMP280;72510;45.128;20.734;2024-03-07T00:41:57;100172.50;;;8.84
82778;BMP280;72510;45.128;20.734;2024-03-07T00:51:58;100169.56;;;8.73
82778;BMP280;72510;45.128;20.734;2024-03-07T01:14:09;100163.72;;;8.60
82778;BMP280;72510;45.128;20.734;2024-03-07T01:24:21;100159.78;;;8.55
82778;BMP280;72510;45.128;20.734;2024-03-07T01:34:23;100161.38;;;8.52
82778;BMP280;72510;45.128;20.734;2024-03-07T01:44:24;100171.00;;;8.41
82778;BMP280;72510;45.128;20.734;2024-03-07T01:54:26;100161.13;;;8.41
82778;BMP280;72510;45.128;20.734;2024-03-07T02:04:29;100146.38;;;8.49
82778;BMP280;72510;45.128;20.734;2024-03-07T02:14:38;100135.03;;;8.49
82778;BMP280;72510;45.128;20.734;2024-03-07T02:25:14;100134.78;;;8.28
82778;BMP280;72510;45.128;20.734;2024-03-07T02:35:18;100132.31;;;8.06
82778;BMP280;72510;45.128;20.734;2024-03-07T02:45:23;100130.13;;;7.86
82778;BMP280;72510;45.128;20.734;2024-03-07T02:55:32;100133.66;;;7.74
82778;BMP280;72510;45.128;20.734;2024-03-07T03:05:35;100127.91;;;7.66
82778;BMP280;72510;45.128;20.734;2024-03-07T03:15:42;100136.28;;;7.83
82778;BMP280;72510;45.128;20.734;2024-03-07T03:25:44;100143.03;;;8.12
82778;BMP280;72510;45.128;20.734;2024-03-07T03:35:46;100159.38;;;8.29
82778;BMP280;72510;45.128;20.734;2024-03-07T03:45:48;100145.94;;;8.32
82778;BMP280;72510;45.128;20.734;2024-03-07T03:55:49;100157.47;;;8.39
82778;BMP280;72510;45.128;20.734;2024-03-07T04:05:50;100149.78;;;8.41
82778;BMP280;72510;45.128;20.734;2024-03-07T04:15:51;100157.28;;;8.42
82778;BMP280;72510;45.128;20.734;2024-03-07T04:25:53;100160.66;;;8.43
82778;BMP280;72510;45.128;20.734;2024-03-07T04:35:55;100161.41;;;8.43
82778;BMP280;72510;45.128;20.734;2024-03-07T04:45:56;100176.31;;;8.41
82778;BMP280;72510;45.128;20.734;2024-03-07T04:55:57;100173.53;;;8.35
82778;BMP280;72510;45.128;20.734;2024-03-07T05:05:59;100188.56;;;8.29
82778;BMP280;72510;45.128;20.734;2024-03-07T05:16:01;100203.19;;;8.24
82778;BMP280;72510;45.128;20.734;2024-03-07T05:26:35;100234.72;;;8.13
82778;BMP280;72510;45.128;20.734;2024-03-07T05:36:40;100253.59;;;8.06
82778;BMP280;72510;45.128;20.734;2024-03-07T05:46:46;100261.34;;;8.00
82778;BMP280;72510;45.128;20.734;2024-03-07T05:57:13;100273.88;;;8.00
82778;BMP280;72510;45.128;20.734;2024-03-07T06:07:50;100292.00;;;8.01
82778;BMP280;72510;45.128;20.734;2024-03-07T06:17:51;100300.13;;;7.98
82778;BMP280;72510;45.128;20.734;2024-03-07T06:27:53;100311.16;;;7.87
82778;BMP280;72510;45.128;20.734;2024-03-07T06:37:54;100306.09;;;7.80
82778;BMP280;72510;45.128;20.734;2024-03-07T06:47:55;100300.63;;;7.65
82778;BMP280;72510;45.128;20.734;2024-03-07T06:58:15;100309.28;;;7.56
82778;BMP280;72510;45.128;20.734;2024-03-07T07:08:18;100308.22;;;7.53
82778;BMP280;72510;45.128;20.734;2024-03-07T07:18:32;100319.28;;;7.52
82778;BMP280;72510;45.128;20.734;2024-03-07T07:29:05;100328.09;;;7.49
82778;BMP280;72510;45.128;20.734;2024-03-07T07:39:07;100330.88;;;7.45
82778;BMP280;72510;45.128;20.734;2024-03-07T07:49:15;100331.81;;;7.51
82778;BMP280;72510;45.128;20.734;2024-03-07T07:59:20;100338.69;;;7.49
82778;BMP280;72510;45.128;20.734;2024-03-07T08:09:22;100347.81;;;7.48
82778;BMP280;72510;45.128;20.734;2024-03-07T08:19:23;100357.34;;;7.45
82778;BMP280;72510;45.128;20.734;2024-03-07T08:29:25;100363.84;;;7.44
82778;BMP280;72510;45.128;20.734;2024-03-07T08:39:29;100364.03;;;7.50
82778;BMP280;72510;45.128;20.734;2024-03-07T08:49:33;100356.88;;;7.60
82778;BMP280;72510;45.128;20.734;2024-03-07T08:59:41;100363.75;;;7.57
82778;BMP280;72510;45.128;20.734;2024-03-07T09:09:46;100359.63;;;7.56
82778;BMP280;72510;45.128;20.734;2024-03-07T09:19:59;100361.81;;;7.48
82778;BMP280;72510;45.128;20.734;2024-03-07T09:30:08;100372.94;;;7.43
82778;BMP280;72510;45.128;20.734;2024-03-07T09:40:20;100394.03;;;7.47
82778;BMP280;72510;45.128;20.734;2024-03-07T09:50:29;100384.16;;;7.47
82778;BMP280;72510;45.128;20.734;2024-03-07T10:00:35;100399.97;;;7.51
82778;BMP280;72510;45.128;20.734;2024-03-07T10:10:37;100404.06;;;7.52
82778;BMP280;72510;45.128;20.734;2024-03-07T10:20:39;100408.78;;;7.48
82778;BMP280;72510;45.128;20.734;2024-03-07T10:30:43;100414.97;;;7.54
82778;BMP280;72510;45.128;20.734;2024-03-07T10:40:53;100426.06;;;7.62
82778;BMP280;72510;45.128;20.734;2024-03-07T10:51:17;100416.75;;;7.88
82778;BMP280;72510;45.128;20.734;2024-03-07T11:01:23;100420.16;;;8.29
82778;BMP280;72510;45.128;20.734;2024-03-07T11:11:27;100414.59;;;8.55
82778;BMP280;72510;45.128;20.734;2024-03-07T11:31:55;100419.09;;;8.27
82778;BMP280;72510;45.128;20.734;2024-03-07T11:42:00;100425.47;;;8.29
82778;BMP280;72510;45.128;20.734;2024-03-07T11:52:11;100422.31;;;8.22
82778;BMP280;72510;45.128;20.734;2024-03-07T12:02:23;100424.97;;;8.31
82778;BMP280;72510;45.128;20.734;2024-03-07T12:12:58;100430.78;;;8.48
82778;BMP280;72510;45.128;20.734;2024-03-07T12:23:17;100421.97;;;8.60
82778;BMP280;72510;45.128;20.734;2024-03-07T12:33:29;100418.41;;;8.45
82778;BMP280;72510;45.128;20.734;2024-03-07T12:43:32;100425.78;;;8.41
82778;BMP280;72510;45.128;20.734;2024-03-07T12:54:10;100432.38;;;8.27
82778;BMP280;72510;45.128;20.734;2024-03-07T13:04:17;100431.16;;;8.19
82778;BMP280;72510;45.128;20.734;2024-03-07T13:14:20;100438.31;;;8.00
82778;BMP280;72510;45.128;20.734;2024-03-07T13:24:27;100446.25;;;8.00
82778;BMP280;72510;45.128;20.734;2024-03-07T13:34:36;100449.75;;;7.87
82778;BMP280;72510;45.128;20.734;2024-03-07T13:44:49;100456.78;;;7.81
82778;BMP280;72510;45.128;20.734;2024-03-07T13:54:58;100470.00;;;7.72
82778;BMP280;72510;45.128;20.734;2024-03-07T14:37:01;100472.66;;;7.72
82778;BMP280;72510;45.128;20.734;2024-03-07T14:47:05;100477.31;;;7.68
82778;BMP280;72510;45.128;20.734;2024-03-07T14:57:11;100483.31;;;7.59
82778;BMP280;72510;45.128;20.734;2024-03-07T15:07:13;100478.50;;;7.45
82778;BMP280;72510;45.128;20.734;2024-03-07T15:17:16;100496.38;;;7.31
82778;BMP280;72510;45.128;20.734;2024-03-07T15:27:22;100492.28;;;7.18
82778;BMP280;72510;45.128;20.734;2024-03-07T15:37:24;100504.47;;;7.15
82778;BMP280;72510;45.128;20.734;2024-03-07T15:47:26;100518.75;;;7.18
82778;BMP280;72510;45.128;20.734;2024-03-07T15:57:30;100524.72;;;7.09
82778;BMP280;72510;45.128;20.734;2024-03-07T16:07:32;100524.13;;;6.92
82778;BMP280;72510;45.128;20.734;2024-03-07T16:17:54;100538.00;;;6.83
82778;BMP280;72510;45.128;20.734;2024-03-07T16:28:29;100542.13;;;6.71
82778;BMP280;72510;45.128;20.734;2024-03-07T16:38:31;100558.75;;;6.59
82778;BMP280;72510;45.128;20.734;2024-03-07T16:48:38;100571.75;;;6.53
82778;BMP280;72510;45.128;20.734;2024-03-07T16:58:40;100583.72;;;6.45
82778;BMP280;72510;45.128;20.734;2024-03-07T17:08:49;100590.16;;;6.44
82778;BMP280;72510;45.128;20.734;2024-03-07T17:18:53;100587.75;;;6.37
82778;BMP280;72510;45.128;20.734;2024-03-07T17:28:56;100597.66;;;6.33
82778;BMP280;72510;45.128;20.734;2024-03-07T17:39:01;100599.34;;;6.27
82778;BMP280;72510;45.128;20.734;2024-03-07T17:49:05;100606.94;;;6.25
82778;BMP280;72510;45.128;20.734;2024-03-07T17:59:18;100601.34;;;6.23
82778;BMP280;72510;45.128;20.734;2024-03-07T18:09:26;100612.31;;;6.21
82778;BMP280;72510;45.128;20.734;2024-03-07T18:20:00;100614.97;;;6.21
82778;BMP280;72510;45.128;20.734;2024-03-07T18:30:09;100620.72;;;6.20
82778;BMP280;72510;45.128;20.734;2024-03-07T18:40:47;100627.47;;;6.21
82778;BMP280;72510;45.128;20.734;2024-03-07T18:50:53;100642.50;;;6.24
82778;BMP280;72510;45.128;20.734;2024-03-07T19:00:55;100642.19;;;6.22
82778;BMP280;72510;45.128;20.734;2024-03-07T19:21:48;100653.50;;;6.22
82778;BMP280;72510;45.128;20.734;2024-03-07T19:32:13;100658.78;;;6.22
82778;BMP280;72510;45.128;20.734;2024-03-07T19:42:18;100666.72;;;6.22
82778;BMP280;72510;45.128;20.734;2024-03-07T19:52:21;100676.44;;;6.25
82778;BMP280;72510;45.128;20.734;2024-03-07T20:02:23;100668.50;;;6.25
82778;BMP280;72510;45.128;20.734;2024-03-07T20:12:26;100679.63;;;6.20
82778;BMP280;72510;45.128;20.734;2024-03-07T20:22:28;100687.03;;;6.25
82778;BMP280;72510;45.128;20.734;2024-03-07T20:32:29;100690.41;;;6.26
82778;BMP280;72510;45.128;20.734;2024-03-07T20:42:31;100684.81;;;6.24
82778;BMP280;72510;45.128;20.734;2024-03-07T20:52:39;100685.84;;;6.26
82778;BMP280;72510;45.128;20.734;2024-03-07T21:02:44;100688.50;;;6.26
82778;BMP280;72510;45.128;20.734;2024-03-07T21:12:48;100693.06;;;6.26
82778;BMP280;72510;45.128;20.734;2024-03-07T21:22:53;100690.53;;;6.22
82778;BMP280;72510;45.128;20.734;2024-03-07T21:32:55;100689.66;;;6.25
82778;BMP280;72510;45.128;20.734;2024-03-07T21:42:56;100689.38;;;6.23
82778;BMP280;72510;45.128;20.734;2024-03-07T21:53:04;100702.16;;;6.25
82778;BMP280;72510;45.128;20.734;2024-03-07T22:03:05;100707.00;;;6.26
82778;BMP280;72510;45.128;20.734;2024-03-07T22:13:08;100713.06;;;6.27
82778;BMP280;72510;45.128;20.734;2024-03-07T22:23:10;100699.94;;;6.23
82778;BMP280;72510;45.128;20.734;2024-03-07T22:44:59;100705.97;;;6.24
82778;BMP280;72510;45.128;20.734;2024-03-07T22:55:00;100697.03;;;6.18
82778;BMP280;72510;45.128;20.734;2024-03-07T23:05:01;100697.88;;;6.14
82778;BMP280;72510;45.128;20.734;2024-03-07T23:15:08;100707.69;;;6.14
82778;BMP280;72510;45.128;20.734;2024-03-07T23:25:09;100713.81;;;6.11
82778;BMP280;72510;45.128;20.734;2024-03-07T23:35:13;100723.34;;;6.08
82778;BMP280;72510;45.128;20.734;2024-03-07T23:45:14;100716.97;;;6.06
82778;BMP280;72510;45.128;20.734;2024-03-07T23:55:50;100729.78;;;6.07
